createdAt,value
2017-09-30T00:01:35.332Z,1018.8
2017-09-30T00:06:41.069Z,1018.8
2017-09-30T00:11:46.473Z,1018.7
2017-09-30T00:16:51.533Z,1018.7
2017-09-30T00:21:56.931Z,1018.8
2017-09-30T00:27:02.326Z,1018.7
2017-09-30T00:32:07.059Z,1018.7
2017-09-30T00:37:12.126Z,1018.7
2017-09-30T00:42:17.859Z,1018.7
2017-09-30T00:47:22.254Z,1018.7
2017-09-30T00:52:28.325Z,1018.7
2017-09-30T00:57:33.391Z,1018.6
2017-09-30T01:02:38.791Z,1018.5
2017-09-30T01:07:43.853Z,1018.4
2017-09-30T01:12:49.588Z,1018.4
2017-09-30T01:17:54.652Z,1018.6
2017-09-30T01:22:59.043Z,1018.6
2017-09-30T01:28:04.438Z,1018.5
2017-09-30T01:33:09.501Z,1018.6
2017-09-30T01:38:44.752Z,1018.6
2017-09-30T01:43:50.489Z,1018.6
2017-09-30T01:48:55.886Z,1018.5
2017-09-30T01:54:00.948Z,1018.5
2017-09-30T01:59:05.678Z,1018.5
2017-09-30T02:04:10.408Z,1018.5
2017-09-30T02:09:15.810Z,1018.5
2017-09-30T02:14:20.541Z,1018.5
2017-09-30T02:19:25.269Z,1018.5
2017-09-30T02:24:29.994Z,1018.4
2017-09-30T02:29:35.061Z,1018.4
2017-09-30T02:34:40.457Z,1018.2
2017-09-30T02:39:45.538Z,1018.2
2017-09-30T02:44:50.921Z,1018.2
2017-09-30T02:49:56.320Z,1018.2
2017-09-30T02:55:01.380Z,1018.2
2017-09-30T03:00:06.787Z,1018.2
2017-09-30T03:05:11.516Z,1018.2
2017-09-30T03:10:16.581Z,1018.1
2017-09-30T03:15:21.976Z,1018.1
2017-09-30T03:20:26.704Z,1018
2017-09-30T03:25:31.769Z,1018
2017-09-30T03:30:36.832Z,1018
2017-09-30T03:35:41.561Z,1017.9
2017-09-30T03:40:46.288Z,1017.8
2017-09-30T03:45:51.358Z,1017.8
2017-09-30T03:50:56.090Z,1017.8
2017-09-30T03:56:01.152Z,1017.8
2017-09-30T04:01:06.220Z,1017.8
2017-09-30T04:06:10.954Z,1017.8
2017-09-30T04:11:15.350Z,1017.8
2017-09-30T04:16:20.416Z,1017.8
2017-09-30T04:21:25.144Z,1017.8
2017-09-30T04:26:30.884Z,1017.7
2017-09-30T04:31:36.288Z,1017.7
2017-09-30T04:36:41.025Z,1017.6
2017-09-30T04:41:46.110Z,1017.7
2017-09-30T04:46:51.513Z,1017.7
2017-09-30T04:51:57.253Z,1017.7
2017-09-30T04:57:02.987Z,1017.7
2017-09-30T05:02:07.722Z,1017.7
2017-09-30T05:07:12.787Z,1017.7
2017-09-30T05:12:18.518Z,1017.7
2017-09-30T05:17:23.627Z,1017.8
2017-09-30T05:22:28.692Z,1017.9
2017-09-30T05:27:33.751Z,1018
2017-09-30T05:32:39.484Z,1018
2017-09-30T05:37:44.548Z,1018
2017-09-30T05:42:49.612Z,1018
2017-09-30T05:47:55.680Z,1018
2017-09-30T05:53:00.409Z,1018
2017-09-30T05:58:05.811Z,1018.1
2017-09-30T06:03:10.541Z,1018.1
2017-09-30T06:08:16.283Z,1018.1
2017-09-30T06:13:21.012Z,1018.1
2017-09-30T06:18:26.080Z,1018.1
2017-09-30T06:23:31.815Z,1018.1
2017-09-30T06:28:37.549Z,1018.1
2017-09-30T06:33:43.621Z,1018.1
2017-09-30T06:38:48.686Z,1018.1
2017-09-30T06:43:54.429Z,1018
2017-09-30T06:48:59.828Z,1018
2017-09-30T06:54:05.228Z,1017.9
2017-09-30T06:59:10.290Z,1017.9
2017-09-30T07:04:16.022Z,1018
2017-09-30T07:09:21.088Z,1018
2017-09-30T07:14:26.887Z,1017.9
2017-09-30T07:19:31.675Z,1017.9
2017-09-30T07:24:37.077Z,1017.8
2017-09-30T07:29:42.814Z,1017.8
2017-09-30T07:34:48.218Z,1017.7
2017-09-30T07:39:52.614Z,1017.6
2017-09-30T07:44:57.017Z,1017.6
2017-09-30T07:50:01.748Z,1017.6
2017-09-30T07:55:07.486Z,1017.5
2017-09-30T08:00:12.561Z,1017.5
2017-09-30T08:05:17.310Z,1017.5
2017-09-30T08:10:22.601Z,1017.5
2017-09-30T08:15:28.021Z,1017.4
2017-09-30T08:20:33.753Z,1017.3
2017-09-30T08:25:39.541Z,1017.3
2017-09-30T08:30:44.625Z,1017.3
2017-09-30T08:35:49.395Z,1017.3
2017-09-30T08:40:54.830Z,1017.4
2017-09-30T08:45:59.650Z,1017.3
2017-09-30T08:51:05.601Z,1017.3
2017-09-30T08:56:10.683Z,1017.3
2017-09-30T09:01:15.438Z,1017.2
2017-09-30T09:06:20.512Z,1017.1
2017-09-30T09:11:26.363Z,1017
2017-09-30T09:16:31.436Z,1017
2017-09-30T09:21:37.172Z,1017.1
2017-09-30T09:26:42.249Z,1017.2
2017-09-30T09:31:48.025Z,1017.1
2017-09-30T09:36:53.488Z,1017.2
2017-09-30T09:41:58.888Z,1017.1
2017-09-30T09:47:03.953Z,1017
2017-09-30T09:52:09.688Z,1017.1
2017-09-30T09:57:15.086Z,1017.1
2017-09-30T10:02:20.153Z,1017.1
2017-09-30T10:07:26.225Z,1017.2
2017-09-30T10:12:31.961Z,1017.2
2017-09-30T10:17:37.074Z,1017.2
2017-09-30T10:22:42.481Z,1017
2017-09-30T10:27:48.206Z,1017
2017-09-30T10:32:53.605Z,1017
2017-09-30T10:37:58.689Z,1017
2017-09-30T10:43:04.770Z,1017.1
2017-09-30T10:48:09.664Z,1017
2017-09-30T10:53:15.070Z,1016.9
2017-09-30T10:58:20.586Z,1016.9
2017-09-30T11:03:25.655Z,1016.8
2017-09-30T11:08:31.056Z,1016.9
2017-09-30T11:13:36.144Z,1016.8
2017-09-30T11:18:41.212Z,1016.7
2017-09-30T11:23:46.613Z,1016.7
2017-09-30T11:28:52.387Z,1016.7
2017-09-30T11:33:58.136Z,1016.6
2017-09-30T11:39:03.691Z,1016.6
2017-09-30T11:44:08.140Z,1016.5
2017-09-30T11:49:12.883Z,1016.5
2017-09-30T11:54:17.955Z,1016.4
2017-09-30T11:59:23.361Z,1016.4
2017-09-30T12:04:28.760Z,1016.3
2017-09-30T12:09:34.498Z,1016.2
2017-09-30T12:14:39.897Z,1016.1
2017-09-30T12:19:45.315Z,1016
2017-09-30T12:24:50.711Z,1016.1
2017-09-30T12:29:55.115Z,1016
2017-09-30T12:35:00.514Z,1015.9
2017-09-30T12:40:05.916Z,1015.9
2017-09-30T12:45:11.651Z,1016
2017-09-30T12:50:16.385Z,1016
2017-09-30T12:55:20.790Z,1016
2017-09-30T13:00:25.189Z,1016.1
2017-09-30T13:05:30.932Z,1016
2017-09-30T13:10:35.998Z,1015.9
2017-09-30T13:15:41.399Z,1016
2017-09-30T13:20:47.131Z,1015.9
2017-09-30T13:25:52.590Z,1015.9
2017-09-30T13:30:57.674Z,1015.8
2017-09-30T13:36:03.507Z,1015.7
2017-09-30T13:41:08.262Z,1015.7
2017-09-30T13:46:13.676Z,1015.7
2017-09-30T13:51:18.768Z,1015.7
2017-09-30T13:56:24.202Z,1015.7
2017-09-30T14:01:28.942Z,1015.6
2017-09-30T14:06:34.030Z,1015.6
2017-09-30T14:11:39.789Z,1015.5
2017-09-30T14:16:45.240Z,1015.5
2017-09-30T14:21:50.643Z,1015.4
2017-09-30T14:26:55.727Z,1015.3
2017-09-30T14:32:00.799Z,1015.3
2017-09-30T14:37:05.879Z,1015.2
2017-09-30T14:42:10.988Z,1015.1
2017-09-30T14:47:16.460Z,1015.1
2017-09-30T14:52:21.264Z,1015.1
2017-09-30T14:57:26.673Z,1015.1
2017-09-30T15:02:31.790Z,1015
2017-09-30T15:07:37.540Z,1015
2017-09-30T15:12:42.952Z,1015
2017-09-30T15:17:48.031Z,1015
2017-09-30T15:22:53.127Z,1015
2017-09-30T15:27:57.888Z,1014.9
2017-09-30T15:33:03.306Z,1014.9
2017-09-30T15:38:08.039Z,1014.8
2017-09-30T15:43:13.110Z,1014.7
2017-09-30T15:48:18.338Z,1014.7
2017-09-30T15:53:23.419Z,1014.7
2017-09-30T15:58:28.150Z,1014.6
2017-09-30T16:03:33.004Z,1014.6
2017-09-30T16:08:38.070Z,1014.7
2017-09-30T16:13:43.208Z,1014.6
2017-09-30T16:18:48.270Z,1014.6
2017-09-30T16:23:53.678Z,1014.6
2017-09-30T16:28:58.737Z,1014.6
2017-09-30T16:34:03.808Z,1014.6
2017-09-30T16:39:08.873Z,1014.6
2017-09-30T16:44:13.266Z,1014.6
2017-09-30T16:49:17.997Z,1014.6
2017-09-30T16:54:23.741Z,1014.5
2017-09-30T16:59:29.144Z,1014.6
2017-09-30T17:04:34.888Z,1014.5
2017-09-30T17:09:40.945Z,1014.5
2017-09-30T17:14:46.361Z,1014.5
2017-09-30T17:19:51.770Z,1014.5
2017-09-30T17:24:56.841Z,1014.5
2017-09-30T17:30:01.923Z,1014.5
2017-09-30T17:35:07.530Z,1014.4
2017-09-30T17:40:12.601Z,1014.3
2017-09-30T17:45:17.666Z,1014.3
2017-09-30T17:50:22.747Z,1014.3
2017-09-30T17:55:28.148Z,1014.3
2017-09-30T18:00:33.978Z,1014.2
2017-09-30T18:05:39.384Z,1014.2
2017-09-30T18:10:44.798Z,1014.1
2017-09-30T18:15:50.211Z,1014.1
2017-09-30T18:20:56.293Z,1014.1
2017-09-30T18:26:01.702Z,1014.2
2017-09-30T18:31:06.779Z,1014.1
2017-09-30T18:36:12.512Z,1014.1
2017-09-30T18:41:17.929Z,1014.1
2017-09-30T18:46:23.677Z,1014.2
2017-09-30T18:51:29.149Z,1014.2
2017-09-30T18:56:33.552Z,1014.2
2017-09-30T19:01:38.962Z,1014.2
2017-09-30T19:06:44.703Z,1014.2
2017-09-30T19:11:50.119Z,1014.2
2017-09-30T19:16:55.551Z,1014.3
2017-09-30T19:22:00.624Z,1014.4
2017-09-30T19:27:06.026Z,1014.5
2017-09-30T19:32:11.764Z,1014.8
2017-09-30T19:37:17.505Z,1014.9
2017-09-30T19:42:22.243Z,1015
2017-09-30T19:47:27.035Z,1015.2
2017-09-30T19:52:32.117Z,1015.3
2017-09-30T19:57:36.853Z,1015.4
2017-09-30T20:02:41.608Z,1015.5
2017-09-30T20:07:47.011Z,1015.5
2017-09-30T20:12:52.762Z,1015.6
2017-09-30T20:17:58.176Z,1015.7
2017-09-30T20:23:03.580Z,1015.7
2017-09-30T20:28:08.662Z,1015.7
2017-09-30T20:33:13.732Z,1015.8
2017-09-30T20:38:19.487Z,1015.9
2017-09-30T20:43:24.901Z,1016
2017-09-30T20:48:30.317Z,1016.1
2017-09-30T20:53:35.398Z,1016.3
2017-09-30T20:58:40.477Z,1016.2
2017-09-30T21:03:45.883Z,1016.2
2017-09-30T21:08:51.677Z,1016.3
2017-09-30T21:13:56.415Z,1016.3
2017-09-30T21:19:01.490Z,1016.4
2017-09-30T21:24:07.231Z,1016.4
2017-09-30T21:29:12.735Z,1016.4
2017-09-30T21:34:18.480Z,1016.5
2017-09-30T21:39:24.364Z,1016.6
2017-09-30T21:44:29.444Z,1016.7
2017-09-30T21:49:34.847Z,1016.7
2017-09-30T21:54:39.591Z,1016.8
2017-09-30T21:59:45.007Z,1016.8
2017-09-30T22:04:50.067Z,1016.7
2017-09-30T22:09:55.801Z,1016.7
2017-09-30T22:15:00.874Z,1016.8
2017-09-30T22:20:06.661Z,1016.7
2017-09-30T22:25:11.723Z,1016.8
2017-09-30T22:30:17.463Z,1016.8
2017-09-30T22:35:22.198Z,1016.9
2017-09-30T22:40:28.266Z,1016.9
2017-09-30T22:45:33.997Z,1017
2017-09-30T22:50:39.062Z,1017
2017-09-30T22:55:45.130Z,1017.1
2017-09-30T23:00:50.530Z,1017.2
2017-09-30T23:05:55.931Z,1017.2
2017-09-30T23:11:00.326Z,1017.2
2017-09-30T23:16:06.064Z,1017.2
2017-09-30T23:21:10.458Z,1017.3
2017-09-30T23:26:15.520Z,1017.4
2017-09-30T23:31:20.920Z,1017.4
2017-09-30T23:36:26.324Z,1017.4
2017-09-30T23:41:30.728Z,1017.4
2017-09-30T23:46:35.794Z,1017.5
2017-09-30T23:51:41.191Z,1017.6
2017-09-30T23:56:46.255Z,1017.7
